Time;durP1;ratioP1;P1;durP2;ratioP2;P2;SDS_P1;SDS_P2;PMS_P1;PMS_P2;Temp;Humidity;BMP_temperature;BMP_pressure;BME280_temperature;BME280_humidity;BME280_pressure;Samples;Min_cycle;Max_cycle;Signal;HPM_P1;HPM_P2
2022/03/14 00:01:58;;;;;;;18.25;11.18;;;;;;;;;;4959379;28;20051;-70
2022/03/14 00:04:25;;;;;;;15.43;10.70;;;;;;;;;;4941318;28;20080;-70
2022/03/14 00:06:55;;;;;;;16.15;11.00;;;;;;;;;;4943986;28;20051;-70
2022/03/14 00:09:23;;;;;;;16.08;12.07;;;;;;;;;;4944190;28;20066;-70
2022/03/14 00:11:51;;;;;;;19.80;11.60;;;;;;;;;;4944274;28;20158;-70
2022/03/14 00:14:19;;;;;;;15.68;11.15;;;;;;;;;;4975008;28;20055;-70
2022/03/14 00:16:46;;;;;;;14.68;10.57;;;;;;;;;;4952166;28;20051;-70
2022/03/14 00:19:14;;;;;;;15.80;10.15;;;;;;;;;;4952908;28;20207;-70
2022/03/14 00:21:41;;;;;;;13.88;10.35;;;;;;;;;;4950566;28;20094;-70
2022/03/14 00:24:11;;;;;;;16.77;11.40;;;;;;;;;;4946184;28;20047;-70
2022/03/14 00:26:39;;;;;;;12.45;9.80;;;;;;;;;;4947732;28;20055;-70
2022/03/14 00:29:06;;;;;;;14.30;10.13;;;;;;;;;;4948181;28;20147;-70
2022/03/14 00:31:33;;;;;;;14.23;10.45;;;;;;;;;;4946465;29;20047;-70
2022/03/14 00:34:00;;;;;;;13.90;10.38;;;;;;;;;;4975660;28;20114;-70
2022/03/14 00:36:27;;;;;;;12.35;9.20;;;;;;;;;;4948412;28;20058;-70
2022/03/14 00:38:55;;;;;;;12.07;9.65;;;;;;;;;;4948268;28;20059;-70
2022/03/14 00:41:24;;;;;;;11.15;8.68;;;;;;;;;;4948001;28;20051;-70
2022/03/14 00:43:51;;;;;;;11.77;8.40;;;;;;;;;;4948563;28;20039;-70
2022/03/14 00:46:19;;;;;;;10.65;8.20;;;;;;;;;;4945479;28;20087;-70
2022/03/14 00:48:46;;;;;;;11.60;7.45;;;;;;;;;;4943050;28;20059;-70
2022/03/14 00:51:14;;;;;;;10.60;6.45;;;;;;;;;;4950974;28;20055;-70
2022/03/14 00:53:41;;;;;;;8.40;6.32;;;;;;;;;;4946825;29;20107;-70
2022/03/14 00:56:08;;;;;;;7.72;5.68;;;;;;;;;;4946668;28;20055;-70
2022/03/14 00:58:37;;;;;;;8.50;5.57;;;;;;;;;;4951105;28;20085;-70
2022/03/14 01:01:05;;;;;;;7.00;5.32;;;;;;;;;;4953984;28;20051;-70
2022/03/14 01:03:32;;;;;;;6.70;5.20;;;;;;;;;;4944158;28;20058;-70
2022/03/14 01:06:00;;;;;;;5.35;4.70;;;;;;;;;;4948737;28;20059;-68
2022/03/14 01:08:27;;;;;;;6.35;4.90;;;;;;;;;;4928019;29;20055;-68
2022/03/14 01:10:54;;;;;;;6.57;5.10;;;;;;;;;;4924814;29;20891;-67
2022/03/14 01:13:22;;;;;;;7.40;4.72;;;;;;;;;;4925452;29;20073;-67
2022/03/14 01:15:50;;;;;;;9.82;5.50;;;;;;;;;;4927296;29;20052;-67
2022/03/14 01:18:18;;;;;;;7.72;5.20;;;;;;;;;;4923275;29;20060;-67
2022/03/14 01:20:45;;;;;;;7.40;5.10;;;;;;;;;;4927302;29;20071;-67
2022/03/14 01:23:12;;;;;;;6.20;4.55;;;;;;;;;;4955285;28;20067;-67
2022/03/14 01:25:41;;;;;;;8.45;5.28;;;;;;;;;;4926969;29;20047;-67
2022/03/14 01:28:08;;;;;;;6.60;5.53;;;;;;;;;;4924133;29;20677;-67
2022/03/14 01:30:37;;;;;;;7.38;5.45;;;;;;;;;;4921120;29;20059;-68
2022/03/14 01:33:06;;;;;;;6.45;4.95;;;;;;;;;;4922105;29;20119;-68
2022/03/14 01:35:34;;;;;;;6.78;5.20;;;;;;;;;;4925136;29;20680;-68
2022/03/14 01:38:01;;;;;;;7.38;5.60;;;;;;;;;;4923384;29;20052;-68
2022/03/14 01:40:28;;;;;;;6.93;5.55;;;;;;;;;;4925525;29;20063;-68
2022/03/14 01:42:56;;;;;;;7.13;5.32;;;;;;;;;;4918133;29;20060;-68
2022/03/14 01:45:23;;;;;;;6.93;5.53;;;;;;;;;;4925324;29;20111;-67
2022/03/14 01:47:50;;;;;;;6.57;5.30;;;;;;;;;;4958808;28;20055;-67
2022/03/14 01:50:19;;;;;;;6.18;4.85;;;;;;;;;;4926872;29;20059;-67
2022/03/14 01:52:47;;;;;;;7.57;5.72;;;;;;;;;;4926618;29;20118;-67
2022/03/14 01:55:14;;;;;;;6.18;5.55;;;;;;;;;;4927005;29;20044;-67
2022/03/14 01:57:42;;;;;;;8.40;6.07;;;;;;;;;;4926358;29;20474;-67
2022/03/14 02:00:11;;;;;;;8.80;5.70;;;;;;;;;;4926685;29;20063;-67
2022/03/14 02:02:38;;;;;;;7.13;5.90;;;;;;;;;;4925329;29;20520;-67
2022/03/14 02:05:06;;;;;;;9.25;5.78;;;;;;;;;;4925499;29;20557;-67
2022/03/14 02:07:35;;;;;;;10.18;5.95;;;;;;;;;;4950869;28;20063;-67
2022/03/14 02:10:02;;;;;;;6.68;5.35;;;;;;;;;;4941313;29;20058;-67
2022/03/14 02:12:29;;;;;;;8.63;5.55;;;;;;;;;;4944239;28;20051;-67
2022/03/14 02:14:57;;;;;;;6.70;5.78;;;;;;;;;;4942294;28;20110;-67
2022/03/14 02:17:24;;;;;;;8.90;6.03;;;;;;;;;;4944675;29;20458;-67
2022/03/14 02:19:51;;;;;;;9.93;6.53;;;;;;;;;;4941696;28;20109;-67
2022/03/14 02:22:20;;;;;;;6.80;5.65;;;;;;;;;;4977027;28;20159;-67
2022/03/14 02:24:48;;;;;;;10.52;6.00;;;;;;;;;;4944718;28;20133;-67
2022/03/14 02:27:15;;;;;;;6.03;5.13;;;;;;;;;;4948386;28;20866;-69
2022/03/14 02:29:43;;;;;;;7.55;6.20;;;;;;;;;;4944898;28;20055;-70
2022/03/14 02:32:12;;;;;;;8.35;6.28;;;;;;;;;;4948388;28;20055;-70
2022/03/14 02:34:39;;;;;;;6.90;5.65;;;;;;;;;;4943105;29;20043;-70
2022/03/14 02:37:06;;;;;;;9.27;5.63;;;;;;;;;;4945540;28;20067;-70
2022/03/14 02:39:38;;;;;;;6.82;5.78;;;;;;;;;;4940814;28;20062;-70
2022/03/14 02:42:06;;;;;;;6.47;5.50;;;;;;;;;;4947290;28;20055;-70
2022/03/14 02:44:34;;;;;;;8.77;6.13;;;;;;;;;;4945247;28;20498;-70
2022/03/14 02:47:04;;;;;;;7.18;5.60;;;;;;;;;;4945157;28;20093;-70
2022/03/14 02:49:32;;;;;;;7.20;5.28;;;;;;;;;;4944961;28;20122;-70
2022/03/14 02:51:59;;;;;;;7.78;6.38;;;;;;;;;;4944558;28;20766;-71
2022/03/14 02:54:27;;;;;;;7.20;6.13;;;;;;;;;;4939955;28;20047;-70
2022/03/14 02:56:56;;;;;;;9.73;5.90;;;;;;;;;;4945659;28;20087;-70
2022/03/14 02:59:24;;;;;;;8.43;6.38;;;;;;;;;;4945540;28;20589;-70
2022/03/14 03:01:51;;;;;;;7.70;6.15;;;;;;;;;;4946071;28;20050;-70
2022/03/14 03:04:19;;;;;;;9.27;6.82;;;;;;;;;;4945059;28;20059;-70
2022/03/14 03:06:46;;;;;;;8.48;6.53;;;;;;;;;;4946321;28;20113;-70
2022/03/14 03:09:13;;;;;;;8.23;6.25;;;;;;;;;;4943658;29;20082;-70
2022/03/14 03:11:41;;;;;;;12.23;7.55;;;;;;;;;;4944495;29;20098;-70
2022/03/14 03:14:10;;;;;;;10.98;8.55;;;;;;;;;;4944823;29;20142;-70
2022/03/14 03:16:37;;;;;;;10.32;8.25;;;;;;;;;;4944817;28;20205;-70
2022/03/14 03:19:06;;;;;;;11.95;8.00;;;;;;;;;;4945285;28;20158;-70
2022/03/14 03:21:34;;;;;;;11.48;8.27;;;;;;;;;;4940469;28;20114;-70
2022/03/14 03:24:02;;;;;;;16.60;9.88;;;;;;;;;;4947192;28;20156;-70
2022/03/14 03:26:29;;;;;;;17.75;10.68;;;;;;;;;;4949459;28;20063;-70
2022/03/14 03:28:56;;;;;;;14.32;11.57;;;;;;;;;;4944857;28;20533;-70
2022/03/14 03:31:28;;;;;;;17.63;13.25;;;;;;;;;;4948165;28;20620;-70
2022/03/14 03:33:55;;;;;;;18.77;13.82;;;;;;;;;;4944650;28;20043;-70
2022/03/14 03:36:23;;;;;;;17.55;14.05;;;;;;;;;;4939231;28;20065;-70
2022/03/14 03:38:50;;;;;;;17.50;14.18;;;;;;;;;;4944587;29;20046;-70
2022/03/14 03:41:17;;;;;;;19.30;14.10;;;;;;;;;;4944883;28;20125;-70
2022/03/14 03:43:44;;;;;;;17.45;13.75;;;;;;;;;;4943243;29;20055;-70
2022/03/14 03:46:11;;;;;;;20.85;14.23;;;;;;;;;;4944492;29;20604;-70
2022/03/14 03:48:40;;;;;;;20.42;14.07;;;;;;;;;;4945072;28;20062;-70
2022/03/14 03:51:07;;;;;;;23.02;15.00;;;;;;;;;;4947663;29;20063;-70
2022/03/14 03:53:34;;;;;;;18.80;14.55;;;;;;;;;;4948423;29;20059;-70
2022/03/14 03:56:02;;;;;;;19.40;14.95;;;;;;;;;;4981013;28;20066;-70
2022/03/14 03:58:29;;;;;;;17.05;13.70;;;;;;;;;;4947079;28;20274;-70
2022/03/14 04:00:56;;;;;;;20.50;15.27;;;;;;;;;;4950291;28;20058;-70
2022/03/14 04:03:23;;;;;;;19.17;13.85;;;;;;;;;;4949448;28;20113;-70
2022/03/14 04:05:52;;;;;;;19.08;13.65;;;;;;;;;;4945127;28;20051;-70
2022/03/14 04:08:21;;;;;;;18.08;13.63;;;;;;;;;;4948015;28;20070;-70
2022/03/14 04:10:53;;;;;;;16.92;12.73;;;;;;;;;;4947518;28;20078;-70
2022/03/14 04:13:20;;;;;;;15.38;11.65;;;;;;;;;;4947550;28;20051;-70
2022/03/14 04:15:51;;;;;;;15.38;11.57;;;;;;;;;;4948079;28;20425;-70
2022/03/14 04:18:19;;;;;;;11.98;8.60;;;;;;;;;;4947899;28;20114;-70
2022/03/14 04:20:46;;;;;;;10.80;8.10;;;;;;;;;;4947900;28;20129;-70
2022/03/14 04:23:15;;;;;;;10.00;7.68;;;;;;;;;;4947487;29;20054;-70
2022/03/14 04:25:44;;;;;;;9.75;7.88;;;;;;;;;;4946177;28;20051;-70
2022/03/14 04:28:11;;;;;;;10.00;7.60;;;;;;;;;;4978259;28;20549;-70
2022/03/14 04:30:38;;;;;;;9.57;7.60;;;;;;;;;;4950915;28;20117;-70
2022/03/14 04:33:06;;;;;;;9.98;7.40;;;;;;;;;;4947021;28;20118;-70
2022/03/14 04:35:33;;;;;;;8.68;6.47;;;;;;;;;;4947219;29;20051;-70
2022/03/14 04:38:01;;;;;;;9.57;5.72;;;;;;;;;;4944950;28;20089;-70
2022/03/14 04:40:29;;;;;;;7.85;6.05;;;;;;;;;;4947878;28;20442;-70
2022/03/14 04:42:56;;;;;;;8.82;5.85;;;;;;;;;;4946995;28;20058;-70
2022/03/14 04:45:24;;;;;;;8.52;5.97;;;;;;;;;;4947108;28;20051;-70
2022/03/14 04:47:51;;;;;;;7.47;5.53;;;;;;;;;;4946806;28;20792;-70
2022/03/14 04:50:19;;;;;;;6.25;4.65;;;;;;;;;;4948376;28;20116;-70
2022/03/14 04:52:46;;;;;;;6.90;4.60;;;;;;;;;;4948160;28;20043;-70
2022/03/14 04:55:13;;;;;;;5.85;3.88;;;;;;;;;;4948358;28;20054;-70
2022/03/14 04:57:42;;;;;;;7.18;3.97;;;;;;;;;;4947514;28;20054;-70
2022/03/14 05:00:09;;;;;;;7.35;3.60;;;;;;;;;;4947181;28;20418;-70
2022/03/14 05:02:37;;;;;;;5.60;3.90;;;;;;;;;;4947174;28;20580;-70
2022/03/14 05:05:04;;;;;;;6.47;3.92;;;;;;;;;;4945598;28;20043;-70
2022/03/14 05:07:31;;;;;;;5.55;4.05;;;;;;;;;;4949275;28;20058;-70
2022/03/14 05:09:59;;;;;;;5.28;3.60;;;;;;;;;;4948846;28;20066;-70
2022/03/14 05:12:26;;;;;;;5.13;4.07;;;;;;;;;;4961177;28;20106;-70
2022/03/14 05:14:55;;;;;;;5.30;4.40;;;;;;;;;;4976169;28;20061;-70
2022/03/14 05:17:22;;;;;;;6.65;3.80;;;;;;;;;;4948339;28;20055;-70
2022/03/14 05:19:49;;;;;;;5.05;3.83;;;;;;;;;;4948526;28;20325;-70
2022/03/14 05:22:16;;;;;;;4.80;3.78;;;;;;;;;;4946072;28;20059;-70
2022/03/14 05:24:44;;;;;;;4.07;3.35;;;;;;;;;;4948666;28;20410;-70
2022/03/14 05:27:12;;;;;;;5.13;3.17;;;;;;;;;;4942864;28;20134;-70
2022/03/14 05:29:39;;;;;;;4.75;3.53;;;;;;;;;;4943765;29;20555;-70
2022/03/14 05:32:08;;;;;;;5.43;3.65;;;;;;;;;;4946578;28;20533;-70
2022/03/14 05:34:35;;;;;;;4.22;3.33;;;;;;;;;;4938808;28;20051;-70
2022/03/14 05:37:03;;;;;;;5.18;3.50;;;;;;;;;;4937537;29;20420;-70
2022/03/14 05:39:30;;;;;;;4.40;3.40;;;;;;;;;;4945420;28;20059;-70
2022/03/14 05:41:57;;;;;;;3.97;3.20;;;;;;;;;;4936091;28;20051;-70
2022/03/14 05:44:25;;;;;;;3.97;3.15;;;;;;;;;;4941923;28;20557;-70
2022/03/14 05:46:53;;;;;;;4.57;3.35;;;;;;;;;;4945095;28;20418;-70
2022/03/14 05:49:21;;;;;;;4.28;3.28;;;;;;;;;;4950872;28;20062;-70
2022/03/14 05:51:49;;;;;;;3.55;2.97;;;;;;;;;;4951327;28;20113;-70
2022/03/14 05:54:16;;;;;;;6.20;3.00;;;;;;;;;;4949143;28;20079;-70
2022/03/14 05:56:44;;;;;;;4.85;3.42;;;;;;;;;;4975694;28;20058;-70
2022/03/14 05:59:11;;;;;;;3.67;3.00;;;;;;;;;;4945052;28;20054;-70
2022/03/14 06:01:38;;;;;;;4.13;3.13;;;;;;;;;;4941383;28;20061;-70
2022/03/14 06:04:06;;;;;;;3.72;3.03;;;;;;;;;;4945894;29;20114;-70
2022/03/14 06:06:34;;;;;;;5.18;2.95;;;;;;;;;;4947097;28;20051;-70
2022/03/14 06:09:02;;;;;;;4.72;3.25;;;;;;;;;;4948325;28;20055;-70
2022/03/14 06:11:29;;;;;;;5.88;3.17;;;;;;;;;;4946949;28;20046;-70
2022/03/14 06:13:56;;;;;;;4.00;3.08;;;;;;;;;;4979888;28;20046;-70
2022/03/14 06:16:24;;;;;;;4.60;3.40;;;;;;;;;;4971357;28;20061;-70
2022/03/14 06:18:51;;;;;;;4.47;3.05;;;;;;;;;;4942677;28;20065;-70
2022/03/14 06:21:19;;;;;;;4.63;3.55;;;;;;;;;;4941114;28;20133;-70
2022/03/14 06:23:47;;;;;;;6.30;3.70;;;;;;;;;;4959645;28;20058;-70
2022/03/14 06:26:15;;;;;;;4.72;3.72;;;;;;;;;;4940066;28;20054;-70
2022/03/14 06:28:42;;;;;;;4.28;3.42;;;;;;;;;;4978037;28;20064;-70
2022/03/14 06:31:11;;;;;;;4.55;3.70;;;;;;;;;;4945648;28;20529;-70
2022/03/14 06:33:38;;;;;;;5.00;3.75;;;;;;;;;;4977041;28;20058;-70
2022/03/14 06:36:06;;;;;;;4.70;3.95;;;;;;;;;;4977075;28;20055;-70
2022/03/14 06:38:34;;;;;;;5.30;4.43;;;;;;;;;;4948031;28;20062;-70
2022/03/14 06:41:04;;;;;;;5.32;4.20;;;;;;;;;;4980438;28;20138;-70
2022/03/14 06:43:33;;;;;;;6.93;4.50;;;;;;;;;;4951896;28;20051;-70
2022/03/14 06:46:00;;;;;;;6.35;4.88;;;;;;;;;;4957491;28;20533;-70
2022/03/14 06:48:27;;;;;;;6.25;4.82;;;;;;;;;;4958225;28;20225;-70
2022/03/14 06:50:54;;;;;;;5.80;4.47;;;;;;;;;;4957769;28;20084;-70
2022/03/14 06:53:22;;;;;;;5.22;4.40;;;;;;;;;;4950417;28;20072;-70
2022/03/14 06:55:49;;;;;;;6.07;4.50;;;;;;;;;;4952031;28;20096;-70
2022/03/14 06:58:17;;;;;;;6.60;4.80;;;;;;;;;;4951532;28;20074;-70
2022/03/14 07:00:45;;;;;;;7.45;5.55;;;;;;;;;;4949878;28;20394;-70
2022/03/14 07:03:12;;;;;;;8.90;5.18;;;;;;;;;;4950816;28;20464;-70
2022/03/14 07:05:39;;;;;;;6.63;5.18;;;;;;;;;;4945352;28;20635;-70
2022/03/14 07:08:06;;;;;;;6.43;4.97;;;;;;;;;;4938435;28;20070;-70
2022/03/14 07:10:34;;;;;;;6.90;5.25;;;;;;;;;;4942976;28;20051;-70
2022/03/14 07:13:01;;;;;;;7.30;5.55;;;;;;;;;;4943670;28;20051;-70
2022/03/14 07:15:30;;;;;;;7.05;5.18;;;;;;;;;;4945454;28;20055;-70
2022/03/14 07:17:57;;;;;;;6.47;5.30;;;;;;;;;;4944790;28;20088;-70
2022/03/14 07:20:25;;;;;;;9.13;5.70;;;;;;;;;;4942882;28;20051;-70
2022/03/14 07:22:54;;;;;;;6.68;5.85;;;;;;;;;;4945919;28;20052;-70
2022/03/14 07:25:22;;;;;;;7.57;6.28;;;;;;;;;;4947626;28;20498;-70
2022/03/14 07:27:49;;;;;;;6.65;5.65;;;;;;;;;;4950607;28;20070;-70
2022/03/14 07:30:16;;;;;;;8.25;5.95;;;;;;;;;;4943315;28;20113;-70
2022/03/14 07:32:46;;;;;;;7.05;5.72;;;;;;;;;;4947055;28;20066;-70
2022/03/14 07:35:14;;;;;;;7.50;5.95;;;;;;;;;;4944884;28;20549;-70
2022/03/14 07:37:41;;;;;;;7.35;6.10;;;;;;;;;;4948310;28;20051;-70
2022/03/14 07:40:09;;;;;;;10.43;6.60;;;;;;;;;;4947597;28;20059;-70
2022/03/14 07:42:40;;;;;;;7.97;6.20;;;;;;;;;;4949648;29;20059;-70
2022/03/14 07:45:08;;;;;;;8.13;6.90;;;;;;;;;;4947872;28;20142;-70
2022/03/14 07:47:35;;;;;;;8.43;6.60;;;;;;;;;;4946133;28;20050;-70
2022/03/14 07:50:05;;;;;;;9.07;6.97;;;;;;;;;;4948621;28;20059;-70
2022/03/14 07:52:32;;;;;;;8.82;7.28;;;;;;;;;;4952554;28;20494;-70
2022/03/14 07:55:00;;;;;;;10.18;7.38;;;;;;;;;;4950510;28;20063;-70
2022/03/14 07:57:27;;;;;;;7.90;6.50;;;;;;;;;;4951258;28;20429;-70
2022/03/14 07:59:54;;;;;;;9.13;6.78;;;;;;;;;;4951949;28;20106;-70
2022/03/14 08:02:23;;;;;;;8.80;7.15;;;;;;;;;;4948884;28;20106;-70
2022/03/14 08:04:50;;;;;;;13.63;8.35;;;;;;;;;;4945939;28;20388;-70
2022/03/14 08:07:20;;;;;;;15.20;9.80;;;;;;;;;;4946545;28;20801;-70
2022/03/14 08:09:48;;;;;;;11.70;10.23;;;;;;;;;;4977450;28;20491;-71
2022/03/14 08:12:15;;;;;;;12.52;9.85;;;;;;;;;;4947840;28;20086;-70
2022/03/14 08:14:42;;;;;;;13.55;10.57;;;;;;;;;;4948089;28;20098;-70
2022/03/14 08:17:10;;;;;;;15.25;11.73;;;;;;;;;;4947600;28;20176;-70
2022/03/14 08:19:37;;;;;;;17.52;13.77;;;;;;;;;;4949614;28;20059;-70
2022/03/14 08:22:04;;;;;;;25.33;20.15;;;;;;;;;;4949753;28;20077;-70
2022/03/14 08:24:33;;;;;;;27.02;20.40;;;;;;;;;;4954125;28;20055;-70
2022/03/14 08:27:02;;;;;;;26.02;20.42;;;;;;;;;;4948089;28;20055;-70
2022/03/14 08:29:29;;;;;;;34.13;23.38;;;;;;;;;;4949955;28;20758;-70
2022/03/14 08:31:59;;;;;;;32.15;23.40;;;;;;;;;;4947334;28;20169;-70
2022/03/14 08:34:26;;;;;;;34.40;24.25;;;;;;;;;;4946037;28;20047;-70
2022/03/14 08:36:53;;;;;;;34.17;23.95;;;;;;;;;;4943337;28;20043;-70
2022/03/14 08:39:20;;;;;;;36.70;24.55;;;;;;;;;;4976513;28;20110;-70
2022/03/14 08:41:49;;;;;;;41.03;26.00;;;;;;;;;;4943508;28;20094;-70
2022/03/14 08:44:16;;;;;;;43.90;26.63;;;;;;;;;;4946012;28;20062;-70
2022/03/14 08:46:44;;;;;;;50.42;28.77;;;;;;;;;;4945630;28;20081;-70
2022/03/14 08:49:11;;;;;;;55.80;30.05;;;;;;;;;;4947058;28;20062;-70
2022/03/14 08:51:40;;;;;;;58.35;31.70;;;;;;;;;;4945979;28;20055;-70
2022/03/14 08:54:07;;;;;;;60.15;32.05;;;;;;;;;;4946670;28;20063;-70
2022/03/14 08:56:34;;;;;;;56.80;30.85;;;;;;;;;;4947405;28;20047;-70
2022/03/14 08:59:03;;;;;;;63.13;30.63;;;;;;;;;;4945277;28;20122;-70
2022/03/14 09:01:32;;;;;;;57.78;29.20;;;;;;;;;;4947659;28;20129;-70
2022/03/14 09:04:00;;;;;;;51.85;27.33;;;;;;;;;;4946678;28;20121;-70
2022/03/14 09:06:28;;;;;;;48.30;26.05;;;;;;;;;;4948422;28;20044;-70
2022/03/14 09:08:56;;;;;;;47.22;25.67;;;;;;;;;;4946058;28;20081;-70
2022/03/14 09:11:24;;;;;;;44.30;24.65;;;;;;;;;;4947512;29;20053;-70
2022/03/14 09:13:51;;;;;;;41.38;23.17;;;;;;;;;;4944229;28;20062;-70
2022/03/14 09:16:20;;;;;;;48.08;23.92;;;;;;;;;;4945532;29;20047;-70
2022/03/14 09:18:47;;;;;;;39.35;20.95;;;;;;;;;;4946132;29;20466;-70
2022/03/14 09:21:15;;;;;;;40.15;18.98;;;;;;;;;;4942177;28;20051;-70
2022/03/14 09:23:42;;;;;;;37.22;18.17;;;;;;;;;;4946243;28;20119;-70
2022/03/14 09:26:10;;;;;;;34.03;15.52;;;;;;;;;;4945863;28;20043;-70
2022/03/14 09:28:39;;;;;;;28.55;13.57;;;;;;;;;;4946258;28;20058;-70
2022/03/14 09:31:07;;;;;;;26.85;12.43;;;;;;;;;;4947672;28;20094;-70
2022/03/14 09:33:36;;;;;;;25.67;11.98;;;;;;;;;;4946605;28;20157;-70
2022/03/14 09:36:03;;;;;;;25.35;10.63;;;;;;;;;;4978013;28;20051;-70
2022/03/14 09:38:30;;;;;;;30.80;10.88;;;;;;;;;;4977532;28;20065;-70
2022/03/14 09:41:02;;;;;;;27.20;9.57;;;;;;;;;;4945064;28;20144;-70
2022/03/14 09:43:30;;;;;;;19.70;8.43;;;;;;;;;;4980757;28;20135;-71
2022/03/14 09:45:58;;;;;;;21.35;8.80;;;;;;;;;;4939401;28;20066;-70
2022/03/14 09:48:25;;;;;;;22.00;9.60;;;;;;;;;;4943036;28;20063;-70
2022/03/14 09:50:54;;;;;;;21.27;7.75;;;;;;;;;;4941979;28;20055;-70
2022/03/14 09:53:21;;;;;;;24.67;6.82;;;;;;;;;;4943192;28;20060;-70
2022/03/14 09:55:48;;;;;;;22.65;6.43;;;;;;;;;;4945803;28;20494;-70
2022/03/14 09:58:16;;;;;;;19.30;5.32;;;;;;;;;;4945044;28;20495;-70
2022/03/14 10:00:43;;;;;;;15.25;4.20;;;;;;;;;;4945867;28;20123;-70
2022/03/14 10:03:11;;;;;;;11.40;4.00;;;;;;;;;;4946800;28;20055;-68
2022/03/14 10:05:38;;;;;;;13.02;4.95;;;;;;;;;;4951016;28;20085;-68
2022/03/14 10:08:07;;;;;;;14.95;4.68;;;;;;;;;;4943388;28;20110;-70
2022/03/14 10:10:37;;;;;;;17.13;4.72;;;;;;;;;;4946600;28;20051;-70
2022/03/14 10:13:05;;;;;;;13.63;4.65;;;;;;;;;;4944981;28;20870;-70
2022/03/14 10:15:37;;;;;;;15.43;4.38;;;;;;;;;;4943553;28;20091;-70
2022/03/14 10:18:11;;;;;;;19.85;4.85;;;;;;;;;;4939403;29;20051;-70
2022/03/14 10:20:40;;;;;;;19.38;4.90;;;;;;;;;;4945761;28;20145;-70
2022/03/14 10:23:09;;;;;;;14.63;4.93;;;;;;;;;;4943864;28;20054;-70
2022/03/14 10:25:43;;;;;;;18.63;4.95;;;;;;;;;;4943238;28;20059;-70
2022/03/14 10:28:10;;;;;;;16.35;4.82;;;;;;;;;;4937955;28;20083;-70
2022/03/14 10:30:37;;;;;;;16.33;4.72;;;;;;;;;;4938155;28;20055;-70
2022/03/14 10:33:12;;;;;;;14.68;5.00;;;;;;;;;;4936246;28;20062;-70
2022/03/14 10:35:42;;;;;;;14.13;4.40;;;;;;;;;;4944230;28;20125;-70
2022/03/14 10:38:11;;;;;;;14.10;5.05;;;;;;;;;;4943084;28;20711;-70
2022/03/14 10:40:39;;;;;;;18.38;5.40;;;;;;;;;;4944908;28;20050;-70
2022/03/14 10:43:08;;;;;;;20.85;6.28;;;;;;;;;;4942221;28;20090;-70
2022/03/14 10:45:36;;;;;;;19.23;5.50;;;;;;;;;;4937370;29;20059;-70
2022/03/14 10:48:04;;;;;;;18.95;5.85;;;;;;;;;;4936661;29;20051;-70
2022/03/14 10:50:33;;;;;;;17.10;6.10;;;;;;;;;;4936947;28;20078;-70
2022/03/14 10:53:04;;;;;;;22.77;6.63;;;;;;;;;;4937040;29;20070;-70
2022/03/14 10:55:37;;;;;;;20.63;6.80;;;;;;;;;;4940101;28;20166;-70
2022/03/14 10:58:11;;;;;;;15.60;6.45;;;;;;;;;;4954488;28;20081;-70
2022/03/14 11:00:45;;;;;;;21.15;6.07;;;;;;;;;;4934951;29;20050;-70
2022/03/14 11:03:13;;;;;;;21.33;7.10;;;;;;;;;;4938431;29;20399;-70
2022/03/14 11:05:46;;;;;;;17.95;7.20;;;;;;;;;;4942343;28;20047;-70
2022/03/14 11:08:13;;;;;;;;;;;;;;;;;;4943916;28;20055;-70
2022/03/14 11:10:42;;;;;;;20.65;7.80;;;;;;;;;;4938665;28;20400;-70
2022/03/14 11:13:13;;;;;;;20.27;8.75;;;;;;;;;;4946609;28;20058;-70
2022/03/14 11:15:40;;;;;;;25.30;8.95;;;;;;;;;;4977240;28;20518;-70
2022/03/14 11:18:08;;;;;;;20.52;8.73;;;;;;;;;;4943210;28;20049;-70
2022/03/14 11:20:35;;;;;;;20.30;9.27;;;;;;;;;;4946331;28;20066;-70
2022/03/14 11:23:03;;;;;;;24.77;9.60;;;;;;;;;;4946277;28;20055;-70
2022/03/14 11:25:30;;;;;;;21.38;9.88;;;;;;;;;;4945015;28;20051;-70
2022/03/14 11:28:00;;;;;;;27.95;9.95;;;;;;;;;;4943830;28;20058;-70
2022/03/14 11:30:29;;;;;;;29.70;10.00;;;;;;;;;;4944001;28;20051;-70
2022/03/14 11:32:57;;;;;;;23.23;10.15;;;;;;;;;;4943753;28;20110;-70
2022/03/14 11:35:25;;;;;;;22.17;9.98;;;;;;;;;;4946065;28;20537;-70
2022/03/14 11:37:52;;;;;;;26.15;10.52;;;;;;;;;;4943231;28;20055;-70
2022/03/14 11:40:20;;;;;;;27.90;11.65;;;;;;;;;;4943811;28;20059;-70
2022/03/14 11:42:47;;;;;;;27.17;12.23;;;;;;;;;;4939441;28;20055;-70
2022/03/14 11:45:16;;;;;;;22.30;10.98;;;;;;;;;;4934315;29;20131;-70
2022/03/14 11:47:44;;;;;;;32.65;11.27;;;;;;;;;;4936883;29;20047;-70
2022/03/14 11:50:11;;;;;;;23.95;10.57;;;;;;;;;;4939171;29;20055;-71
2022/03/14 11:52:39;;;;;;;30.08;11.15;;;;;;;;;;4939933;29;20063;-70
2022/03/14 11:55:17;;;;;;;28.23;11.20;;;;;;;;;;4937352;28;20059;-70
2022/03/14 11:57:45;;;;;;;29.25;10.25;;;;;;;;;;4969096;28;20706;-70
2022/03/14 12:00:32;;;;;;;26.05;10.25;;;;;;;;;;4969142;28;20054;-70
2022/03/14 12:03:01;;;;;;;24.67;10.13;;;;;;;;;;4942538;28;20090;-70
2022/03/14 12:05:44;;;;;;;22.55;9.25;;;;;;;;;;4937455;28;20070;-70
2022/03/14 12:08:33;;;;;;;25.10;9.32;;;;;;;;;;4936794;28;20060;-70
2022/03/14 12:11:15;;;;;;;26.00;9.48;;;;;;;;;;4972474;28;20514;-70
2022/03/14 12:13:43;;;;;;;28.02;9.32;;;;;;;;;;4946779;29;20378;-70
2022/03/14 12:16:35;;;;;;;21.80;8.70;;;;;;;;;;4943608;28;20051;-70
2022/03/14 12:19:24;;;;;;;24.45;8.60;;;;;;;;;;4946751;28;20078;-70
2022/03/14 12:21:52;;;;;;;20.98;8.25;;;;;;;;;;4948476;28;20090;-70
2022/03/14 12:24:20;;;;;;;28.33;9.75;;;;;;;;;;4947310;28;20069;-70
2022/03/14 12:26:47;;;;;;;26.38;7.53;;;;;;;;;;4946806;28;20533;-70
2022/03/14 12:29:34;;;;;;;30.67;8.60;;;;;;;;;;4941683;28;20063;-70
2022/03/14 12:32:19;;;;;;;20.33;8.70;;;;;;;;;;4947300;28;20495;-70
2022/03/14 12:34:58;;;;;;;17.48;7.63;;;;;;;;;;4948228;28;20576;-70
2022/03/14 12:37:26;;;;;;;25.23;8.43;;;;;;;;;;4944044;28;20526;-70
2022/03/14 12:39:53;;;;;;;20.77;7.90;;;;;;;;;;4947279;28;20051;-70
2022/03/14 12:42:22;;;;;;;20.05;7.43;;;;;;;;;;4946552;28;20055;-70
2022/03/14 12:45:05;;;;;;;23.52;8.25;;;;;;;;;;4947030;28;20086;-70
2022/03/14 12:47:32;;;;;;;21.00;7.53;;;;;;;;;;4952330;28;20577;-70
2022/03/14 12:50:00;;;;;;;18.48;6.90;;;;;;;;;;4947675;28;20063;-70
2022/03/14 12:52:28;;;;;;;23.33;7.30;;;;;;;;;;4960464;28;20051;-70
2022/03/14 12:54:55;;;;;;;18.55;7.10;;;;;;;;;;4949323;28;20439;-70
2022/03/14 12:57:23;;;;;;;20.63;6.95;;;;;;;;;;4950243;28;20050;-70
2022/03/14 12:59:58;;;;;;;21.48;7.10;;;;;;;;;;4949051;28;20502;-70
2022/03/14 13:02:26;;;;;;;19.60;6.47;;;;;;;;;;4949836;28;20110;-70
2022/03/14 13:04:57;;;;;;;16.83;6.15;;;;;;;;;;4950688;28;20059;-70
2022/03/14 13:07:26;;;;;;;21.15;5.57;;;;;;;;;;4944426;28;20138;-70
2022/03/14 13:09:54;;;;;;;16.80;5.43;;;;;;;;;;4946217;28;20067;-70
2022/03/14 13:12:21;;;;;;;15.25;4.63;;;;;;;;;;4945699;28;20058;-70
2022/03/14 13:14:49;;;;;;;17.30;6.00;;;;;;;;;;4947777;28;20062;-70
2022/03/14 13:17:23;;;;;;;15.65;5.40;;;;;;;;;;4946369;28;20145;-70
2022/03/14 13:19:51;;;;;;;20.67;5.55;;;;;;;;;;4945493;28;20063;-70
2022/03/14 13:22:18;;;;;;;20.05;5.97;;;;;;;;;;4953968;28;20142;-70
2022/03/14 13:24:47;;;;;;;14.27;5.28;;;;;;;;;;4944510;28;20055;-70
2022/03/14 13:27:14;;;;;;;21.15;5.80;;;;;;;;;;4946149;28;20051;-70
2022/03/14 13:29:44;;;;;;;21.45;5.65;;;;;;;;;;4946900;28;20162;-70
2022/03/14 13:32:16;;;;;;;20.58;5.97;;;;;;;;;;4945505;29;20525;-70
2022/03/14 13:34:43;;;;;;;16.45;5.50;;;;;;;;;;4942709;28;20059;-70
2022/03/14 13:37:11;;;;;;;20.08;5.68;;;;;;;;;;4945095;28;20065;-71
2022/03/14 13:39:40;;;;;;;20.52;6.28;;;;;;;;;;4945163;28;20905;-71
2022/03/14 13:42:09;;;;;;;20.48;5.93;;;;;;;;;;4944351;28;20680;-71
2022/03/14 13:44:39;;;;;;;16.42;4.93;;;;;;;;;;4942653;28;20506;-71
2022/03/14 13:47:06;;;;;;;23.88;5.45;;;;;;;;;;4937667;28;20929;-69
2022/03/14 13:49:33;;;;;;;18.85;6.65;;;;;;;;;;4940746;29;20059;-69
2022/03/14 13:52:01;;;;;;;24.40;5.75;;;;;;;;;;4935057;29;20110;-68
2022/03/14 13:54:29;;;;;;;21.42;5.60;;;;;;;;;;4963591;28;20127;-68
2022/03/14 13:57:00;;;;;;;18.17;5.18;;;;;;;;;;4936286;28;20067;-68
2022/03/14 13:59:31;;;;;;;17.60;5.30;;;;;;;;;;4938877;29;20051;-68
2022/03/14 14:01:59;;;;;;;20.83;5.50;;;;;;;;;;4973125;28;20896;-68
2022/03/14 14:04:30;;;;;;;20.15;5.57;;;;;;;;;;4971235;28;20055;-68
2022/03/14 14:06:58;;;;;;;19.05;4.90;;;;;;;;;;4936485;29;20058;-68
2022/03/14 14:09:29;;;;;;;18.27;5.07;;;;;;;;;;4939709;29;20051;-68
2022/03/14 14:12:08;;;;;;;21.73;5.18;;;;;;;;;;4969443;28;20130;-68
2022/03/14 14:14:37;;;;;;;17.02;4.93;;;;;;;;;;4941874;28;20517;-68
2022/03/14 14:17:11;;;;;;;17.25;4.95;;;;;;;;;;4948992;28;20051;-68
2022/03/14 14:19:38;;;;;;;20.40;5.18;;;;;;;;;;4945818;28;20814;-68
2022/03/14 14:22:06;;;;;;;15.75;4.80;;;;;;;;;;4976450;28;20066;-68
2022/03/14 14:24:33;;;;;;;18.55;4.88;;;;;;;;;;4974374;28;20529;-68
2022/03/14 14:27:00;;;;;;;22.13;5.50;;;;;;;;;;4943858;28;20110;-68
2022/03/14 14:29:43;;;;;;;19.05;5.63;;;;;;;;;;4942195;28;20142;-69
2022/03/14 14:32:14;;;;;;;17.35;4.25;;;;;;;;;;4938870;28;20140;-71
2022/03/14 14:34:41;;;;;;;18.15;4.55;;;;;;;;;;4933439;29;20055;-68
2022/03/14 14:37:10;;;;;;;18.48;4.75;;;;;;;;;;4970762;28;20103;-68
2022/03/14 14:39:37;;;;;;;18.08;4.85;;;;;;;;;;4940300;29;20118;-68
2022/03/14 14:42:09;;;;;;;19.50;5.35;;;;;;;;;;4946884;28;20059;-69